sensor_id;sensor_type;location;lat;lon;timestamp;P1;durP1;ratioP1;P2;durP2;ratioP2
33738;SDS011;20063;51.730;11.110;2023-10-09T00:00:53;4.70;;;1.92;;
33738;SDS011;20063;51.730;11.110;2023-10-09T00:03:26;2.17;;;1.60;;
33738;SDS011;20063;51.730;11.110;2023-10-09T00:05:53;3.33;;;1.65;;
33738;SDS011;20063;51.730;11.110;2023-10-09T00:08:19;5.15;;;1.80;;
33738;SDS011;20063;51.730;11.110;2023-10-09T00:10:58;4.47;;;2.20;;
33738;SDS011;20063;51.730;11.110;2023-10-09T00:13:39;3.05;;;1.80;;
33738;SDS011;20063;51.730;11.110;2023-10-09T00:16:17;2.97;;;1.77;;
33738;SDS011;20063;51.730;11.110;2023-10-09T00:19:03;13.40;;;2.33;;
33738;SDS011;20063;51.730;11.110;2023-10-09T00:21:48;4.43;;;2.00;;
33738;SDS011;20063;51.730;11.110;2023-10-09T00:24:14;4.55;;;2.00;;
33738;SDS011;20063;51.730;11.110;2023-10-09T00:26:49;5.05;;;2.03;;
33738;SDS011;20063;51.730;11.110;2023-10-09T00:29:16;3.17;;;2.20;;
33738;SDS011;20063;51.730;11.110;2023-10-09T00:31:49;2.97;;;1.60;;
33738;SDS011;20063;51.730;11.110;2023-10-09T00:34:41;6.72;;;1.80;;
33738;SDS011;20063;51.730;11.110;2023-10-09T00:37:10;5.78;;;2.10;;
33738;SDS011;20063;51.730;11.110;2023-10-09T00:39:42;6.07;;;1.70;;
33738;SDS011;20063;51.730;11.110;2023-10-09T00:42:13;3.63;;;1.65;;
33738;SDS011;20063;51.730;11.110;2023-10-09T00:44:48;2.97;;;1.80;;
33738;SDS011;20063;51.730;11.110;2023-10-09T00:47:14;2.50;;;1.90;;
33738;SDS011;20063;51.730;11.110;2023-10-09T00:49:51;3.00;;;1.70;;
33738;SDS011;20063;51.730;11.110;2023-10-09T00:52:30;3.17;;;1.55;;
33738;SDS011;20063;51.730;11.110;2023-10-09T00:55:07;5.38;;;1.80;;
33738;SDS011;20063;51.730;11.110;2023-10-09T00:57:46;5.82;;;2.33;;
33738;SDS011;20063;51.730;11.110;2023-10-09T01:00:26;3.30;;;1.85;;
33738;SDS011;20063;51.730;11.110;2023-10-09T01:03:19;5.18;;;1.95;;
33738;SDS011;20063;51.730;11.110;2023-10-09T01:05:48;4.28;;;2.25;;
33738;SDS011;20063;51.730;11.110;2023-10-09T01:08:41;3.63;;;1.88;;
33738;SDS011;20063;51.730;11.110;2023-10-09T01:13:39;4.25;;;1.92;;
33738;SDS011;20063;51.730;11.110;2023-10-09T01:16:26;6.15;;;2.38;;
33738;SDS011;20063;51.730;11.110;2023-10-09T01:18:56;6.38;;;3.03;;
33738;SDS011;20063;51.730;11.110;2023-10-09T01:21:25;10.95;;;3.97;;
33738;SDS011;20063;51.730;11.110;2023-10-09T01:24:11;10.18;;;3.80;;
33738;SDS011;20063;51.730;11.110;2023-10-09T01:26:40;15.68;;;5.63;;
33738;SDS011;20063;51.730;11.110;2023-10-09T01:29:10;14.35;;;4.82;;
33738;SDS011;20063;51.730;11.110;2023-10-09T01:34:27;21.45;;;7.22;;
33738;SDS011;20063;51.730;11.110;2023-10-09T01:37:07;16.90;;;7.25;;
33738;SDS011;20063;51.730;11.110;2023-10-09T01:39:46;33.30;;;9.90;;
33738;SDS011;20063;51.730;11.110;2023-10-09T01:42:17;31.30;;;9.85;;
33738;SDS011;20063;51.730;11.110;2023-10-09T01:44:55;33.55;;;10.32;;
33738;SDS011;20063;51.730;11.110;2023-10-09T01:47:23;40.47;;;12.32;;
33738;SDS011;20063;51.730;11.110;2023-10-09T01:49:53;34.92;;;11.00;;
33738;SDS011;20063;51.730;11.110;2023-10-09T01:52:22;43.83;;;12.65;;
33738;SDS011;20063;51.730;11.110;2023-10-09T01:54:53;58.22;;;14.73;;
33738;SDS011;20063;51.730;11.110;2023-10-09T01:57:28;43.65;;;12.32;;
33738;SDS011;20063;51.730;11.110;2023-10-09T01:59:55;37.35;;;11.38;;
33738;SDS011;20063;51.730;11.110;2023-10-09T02:02:30;43.75;;;10.93;;
33738;SDS011;20063;51.730;11.110;2023-10-09T02:05:05;52.50;;;12.45;;
33738;SDS011;20063;51.730;11.110;2023-10-09T02:07:36;35.00;;;11.18;;
33738;SDS011;20063;51.730;11.110;2023-10-09T02:10:12;42.70;;;11.95;;
33738;SDS011;20063;51.730;11.110;2023-10-09T02:12:56;31.13;;;11.02;;
33738;SDS011;20063;51.730;11.110;2023-10-09T02:15:34;33.28;;;10.88;;
33738;SDS011;20063;51.730;11.110;2023-10-09T02:18:13;30.90;;;11.63;;
33738;SDS011;20063;51.730;11.110;2023-10-09T02:20:49;39.17;;;9.52;;
33738;SDS011;20063;51.730;11.110;2023-10-09T02:23:29;29.08;;;10.75;;
33738;SDS011;20063;51.730;11.110;2023-10-09T02:26:12;35.42;;;13.32;;
33738;SDS011;20063;51.730;11.110;2023-10-09T02:28:44;32.53;;;13.27;;
33738;SDS011;20063;51.730;11.110;2023-10-09T02:31:17;44.25;;;14.07;;
33738;SDS011;20063;51.730;11.110;2023-10-09T02:33:48;27.17;;;11.40;;
33738;SDS011;20063;51.730;11.110;2023-10-09T02:36:22;41.88;;;14.18;;
33738;SDS011;20063;51.730;11.110;2023-10-09T02:38:49;41.28;;;14.48;;
33738;SDS011;20063;51.730;11.110;2023-10-09T02:41:21;34.72;;;14.40;;
33738;SDS011;20063;51.730;11.110;2023-10-09T02:43:54;49.35;;;14.90;;
33738;SDS011;20063;51.730;11.110;2023-10-09T02:46:25;42.33;;;16.08;;
33738;SDS011;20063;51.730;11.110;2023-10-09T02:48:56;39.33;;;15.90;;
33738;SDS011;20063;51.730;11.110;2023-10-09T02:51:41;38.20;;;14.93;;
33738;SDS011;20063;51.730;11.110;2023-10-09T02:54:12;40.38;;;17.15;;
33738;SDS011;20063;51.730;11.110;2023-10-09T02:56:47;40.10;;;16.60;;
33738;SDS011;20063;51.730;11.110;2023-10-09T02:59:20;35.65;;;14.10;;
33738;SDS011;20063;51.730;11.110;2023-10-09T03:01:49;37.75;;;14.68;;
33738;SDS011;20063;51.730;11.110;2023-10-09T03:04:18;32.72;;;13.80;;
33738;SDS011;20063;51.730;11.110;2023-10-09T03:06:44;45.03;;;14.95;;
33738;SDS011;20063;51.730;11.110;2023-10-09T03:09:31;46.15;;;17.77;;
33738;SDS011;20063;51.730;11.110;2023-10-09T03:11:58;34.35;;;15.32;;
33738;SDS011;20063;51.730;11.110;2023-10-09T03:14:28;32.17;;;14.48;;
33738;SDS011;20063;51.730;11.110;2023-10-09T03:16:55;33.40;;;13.45;;
33738;SDS011;20063;51.730;11.110;2023-10-09T03:19:22;36.85;;;13.73;;
33738;SDS011;20063;51.730;11.110;2023-10-09T03:21:50;39.90;;;13.73;;
33738;SDS011;20063;51.730;11.110;2023-10-09T03:24:16;28.23;;;13.18;;
33738;SDS011;20063;51.730;11.110;2023-10-09T03:26:44;29.58;;;12.90;;
33738;SDS011;20063;51.730;11.110;2023-10-09T03:29:20;36.65;;;13.23;;
33738;SDS011;20063;51.730;11.110;2023-10-09T03:31:45;30.48;;;13.45;;
33738;SDS011;20063;51.730;11.110;2023-10-09T03:34:11;33.00;;;12.27;;
33738;SDS011;20063;51.730;11.110;2023-10-09T03:36:37;22.20;;;10.25;;
33738;SDS011;20063;51.730;11.110;2023-10-09T03:39:06;30.48;;;12.55;;
33738;SDS011;20063;51.730;11.110;2023-10-09T03:42:04;28.55;;;12.38;;
33738;SDS011;20063;51.730;11.110;2023-10-09T03:44:33;25.98;;;11.95;;
33738;SDS011;20063;51.730;11.110;2023-10-09T03:47:00;25.65;;;11.25;;
33738;SDS011;20063;51.730;11.110;2023-10-09T03:49:30;37.25;;;12.98;;
33738;SDS011;20063;51.730;11.110;2023-10-09T03:51:57;40.13;;;14.18;;
33738;SDS011;20063;51.730;11.110;2023-10-09T03:54:27;19.60;;;10.68;;
33738;SDS011;20063;51.730;11.110;2023-10-09T03:56:58;19.60;;;9.52;;
33738;SDS011;20063;51.730;11.110;2023-10-09T03:59:24;22.75;;;10.07;;
33738;SDS011;20063;51.730;11.110;2023-10-09T04:01:56;23.40;;;11.95;;
33738;SDS011;20063;51.730;11.110;2023-10-09T04:04:23;30.13;;;12.55;;
33738;SDS011;20063;51.730;11.110;2023-10-09T04:06:50;24.38;;;11.38;;
33738;SDS011;20063;51.730;11.110;2023-10-09T04:09:19;24.08;;;11.73;;
33738;SDS011;20063;51.730;11.110;2023-10-09T04:11:51;23.95;;;11.40;;
33738;SDS011;20063;51.730;11.110;2023-10-09T04:14:38;18.70;;;9.32;;
33738;SDS011;20063;51.730;11.110;2023-10-09T04:17:22;38.72;;;13.07;;
33738;SDS011;20063;51.730;11.110;2023-10-09T04:19:48;28.27;;;13.30;;
33738;SDS011;20063;51.730;11.110;2023-10-09T04:22:38;24.95;;;11.18;;
33738;SDS011;20063;51.730;11.110;2023-10-09T04:25:07;22.67;;;11.73;;
33738;SDS011;20063;51.730;11.110;2023-10-09T04:27:41;24.85;;;12.07;;
33738;SDS011;20063;51.730;11.110;2023-10-09T04:30:09;28.88;;;13.20;;
33738;SDS011;20063;51.730;11.110;2023-10-09T04:32:41;30.02;;;13.10;;
33738;SDS011;20063;51.730;11.110;2023-10-09T04:35:11;22.27;;;10.63;;
33738;SDS011;20063;51.730;11.110;2023-10-09T04:37:49;27.70;;;13.63;;
33738;SDS011;20063;51.730;11.110;2023-10-09T04:40:29;25.63;;;12.00;;
33738;SDS011;20063;51.730;11.110;2023-10-09T04:43:14;32.83;;;13.70;;
33738;SDS011;20063;51.730;11.110;2023-10-09T04:45:48;25.27;;;11.80;;
33738;SDS011;20063;51.730;11.110;2023-10-09T04:48:32;20.52;;;10.60;;
33738;SDS011;20063;51.730;11.110;2023-10-09T04:50:59;21.10;;;10.02;;
33738;SDS011;20063;51.730;11.110;2023-10-09T04:53:43;23.67;;;11.07;;
33738;SDS011;20063;51.730;11.110;2023-10-09T04:56:13;20.23;;;11.02;;
33738;SDS011;20063;51.730;11.110;2023-10-09T04:58:40;15.13;;;8.73;;
33738;SDS011;20063;51.730;11.110;2023-10-09T05:01:06;26.70;;;12.02;;
33738;SDS011;20063;51.730;11.110;2023-10-09T05:03:46;20.88;;;10.18;;
33738;SDS011;20063;51.730;11.110;2023-10-09T05:06:21;18.67;;;9.60;;
33738;SDS011;20063;51.730;11.110;2023-10-09T05:09:06;21.20;;;10.15;;
33738;SDS011;20063;51.730;11.110;2023-10-09T05:11:39;21.63;;;10.10;;
33738;SDS011;20063;51.730;11.110;2023-10-09T05:14:16;19.40;;;9.35;;
33738;SDS011;20063;51.730;11.110;2023-10-09T05:16:44;17.88;;;10.20;;
33738;SDS011;20063;51.730;11.110;2023-10-09T05:19:21;21.43;;;9.90;;
33738;SDS011;20063;51.730;11.110;2023-10-09T05:22:06;15.57;;;8.57;;
33738;SDS011;20063;51.730;11.110;2023-10-09T05:24:54;17.80;;;9.43;;
33738;SDS011;20063;51.730;11.110;2023-10-09T05:27:23;23.10;;;9.18;;
33738;SDS011;20063;51.730;11.110;2023-10-09T05:30:09;24.50;;;10.50;;
33738;SDS011;20063;51.730;11.110;2023-10-09T05:32:50;21.77;;;9.52;;
33738;SDS011;20063;51.730;11.110;2023-10-09T05:35:20;27.95;;;12.68;;
33738;SDS011;20063;51.730;11.110;2023-10-09T05:37:56;20.42;;;11.45;;
33738;SDS011;20063;51.730;11.110;2023-10-09T05:40:28;21.77;;;10.57;;
33738;SDS011;20063;51.730;11.110;2023-10-09T05:42:56;22.45;;;11.75;;
33738;SDS011;20063;51.730;11.110;2023-10-09T05:45:25;23.45;;;10.75;;
33738;SDS011;20063;51.730;11.110;2023-10-09T05:48:12;24.38;;;11.73;;
33738;SDS011;20063;51.730;11.110;2023-10-09T05:50:38;18.02;;;9.52;;
33738;SDS011;20063;51.730;11.110;2023-10-09T05:53:24;19.13;;;9.50;;
33738;SDS011;20063;51.730;11.110;2023-10-09T05:56:08;17.13;;;10.20;;
33738;SDS011;20063;51.730;11.110;2023-10-09T05:58:53;19.95;;;9.43;;
33738;SDS011;20063;51.730;11.110;2023-10-09T06:01:39;22.17;;;10.48;;
33738;SDS011;20063;51.730;11.110;2023-10-09T06:04:23;18.63;;;10.60;;
33738;SDS011;20063;51.730;11.110;2023-10-09T06:07:09;22.80;;;11.30;;
33738;SDS011;20063;51.730;11.110;2023-10-09T06:09:38;18.60;;;10.95;;
33738;SDS011;20063;51.730;11.110;2023-10-09T06:12:21;23.52;;;11.63;;
33738;SDS011;20063;51.730;11.110;2023-10-09T06:14:59;17.40;;;10.75;;
33738;SDS011;20063;51.730;11.110;2023-10-09T06:17:51;21.42;;;12.65;;
33738;SDS011;20063;51.730;11.110;2023-10-09T06:20:17;21.60;;;11.60;;
33738;SDS011;20063;51.730;11.110;2023-10-09T06:23:11;29.67;;;14.07;;
33738;SDS011;20063;51.730;11.110;2023-10-09T06:26:03;28.98;;;12.15;;
33738;SDS011;20063;51.730;11.110;2023-10-09T06:28:48;21.90;;;10.70;;
33738;SDS011;20063;51.730;11.110;2023-10-09T06:31:34;32.28;;;13.80;;
33738;SDS011;20063;51.730;11.110;2023-10-09T06:34:19;23.55;;;11.40;;
33738;SDS011;20063;51.730;11.110;2023-10-09T06:36:49;29.85;;;11.75;;
33738;SDS011;20063;51.730;11.110;2023-10-09T06:39:18;23.38;;;11.05;;
33738;SDS011;20063;51.730;11.110;2023-10-09T06:42:02;29.33;;;11.38;;
33738;SDS011;20063;51.730;11.110;2023-10-09T06:44:41;17.27;;;9.73;;
33738;SDS011;20063;51.730;11.110;2023-10-09T06:47:18;21.65;;;9.45;;
33738;SDS011;20063;51.730;11.110;2023-10-09T06:49:58;17.52;;;8.90;;
33738;SDS011;20063;51.730;11.110;2023-10-09T06:52:42;22.02;;;10.40;;
33738;SDS011;20063;51.730;11.110;2023-10-09T06:55:23;21.40;;;10.90;;
33738;SDS011;20063;51.730;11.110;2023-10-09T06:58:00;21.08;;;11.73;;
33738;SDS011;20063;51.730;11.110;2023-10-09T07:00:29;23.50;;;11.73;;
33738;SDS011;20063;51.730;11.110;2023-10-09T07:03:14;29.77;;;12.13;;
33738;SDS011;20063;51.730;11.110;2023-10-09T07:05:42;28.23;;;11.32;;
33738;SDS011;20063;51.730;11.110;2023-10-09T07:08:34;29.25;;;12.20;;
33738;SDS011;20063;51.730;11.110;2023-10-09T07:11:06;26.08;;;11.60;;
33738;SDS011;20063;51.730;11.110;2023-10-09T07:14:08;24.58;;;10.13;;
33738;SDS011;20063;51.730;11.110;2023-10-09T07:16:53;24.92;;;10.80;;
33738;SDS011;20063;51.730;11.110;2023-10-09T07:19:22;27.70;;;11.52;;
33738;SDS011;20063;51.730;11.110;2023-10-09T07:25:01;25.35;;;10.07;;
33738;SDS011;20063;51.730;11.110;2023-10-09T07:27:41;28.77;;;12.02;;
33738;SDS011;20063;51.730;11.110;2023-10-09T07:30:09;32.65;;;10.90;;
33738;SDS011;20063;51.730;11.110;2023-10-09T07:35:36;22.50;;;10.82;;
33738;SDS011;20063;51.730;11.110;2023-10-09T07:40:45;22.13;;;10.55;;
33738;SDS011;20063;51.730;11.110;2023-10-09T07:43:26;18.70;;;8.75;;
33738;SDS011;20063;51.730;11.110;2023-10-09T07:46:12;16.83;;;8.00;;
33738;SDS011;20063;51.730;11.110;2023-10-09T07:48:57;20.50;;;9.82;;
33738;SDS011;20063;51.730;11.110;2023-10-09T07:51:34;22.98;;;11.77;;
33738;SDS011;20063;51.730;11.110;2023-10-09T07:54:01;16.58;;;9.55;;
33738;SDS011;20063;51.730;11.110;2023-10-09T07:56:36;18.90;;;9.55;;
33738;SDS011;20063;51.730;11.110;2023-10-09T07:59:11;16.35;;;8.43;;
33738;SDS011;20063;51.730;11.110;2023-10-09T08:01:41;20.55;;;8.70;;
33738;SDS011;20063;51.730;11.110;2023-10-09T08:04:20;13.52;;;8.20;;
33738;SDS011;20063;51.730;11.110;2023-10-09T08:07:03;24.00;;;10.63;;
33738;SDS011;20063;51.730;11.110;2023-10-09T08:09:33;19.50;;;9.80;;
33738;SDS011;20063;51.730;11.110;2023-10-09T08:12:19;20.58;;;8.48;;
33738;SDS011;20063;51.730;11.110;2023-10-09T08:15:03;19.52;;;9.98;;
33738;SDS011;20063;51.730;11.110;2023-10-09T08:20:28;19.73;;;8.55;;
33738;SDS011;20063;51.730;11.110;2023-10-09T08:23:14;15.82;;;8.50;;
33738;SDS011;20063;51.730;11.110;2023-10-09T08:25:58;19.30;;;7.85;;
33738;SDS011;20063;51.730;11.110;2023-10-09T08:28:37;18.20;;;7.95;;
33738;SDS011;20063;51.730;11.110;2023-10-09T08:31:07;22.13;;;9.45;;
33738;SDS011;20063;51.730;11.110;2023-10-09T08:33:58;24.30;;;9.32;;
33738;SDS011;20063;51.730;11.110;2023-10-09T08:36:25;25.55;;;10.25;;
33738;SDS011;20063;51.730;11.110;2023-10-09T08:39:01;21.30;;;9.23;;
33738;SDS011;20063;51.730;11.110;2023-10-09T08:41:42;26.30;;;9.88;;
33738;SDS011;20063;51.730;11.110;2023-10-09T08:44:08;18.50;;;8.82;;
33738;SDS011;20063;51.730;11.110;2023-10-09T08:46:40;21.30;;;8.07;;
33738;SDS011;20063;51.730;11.110;2023-10-09T08:49:07;21.77;;;9.05;;
33738;SDS011;20063;51.730;11.110;2023-10-09T08:51:35;31.85;;;9.50;;
33738;SDS011;20063;51.730;11.110;2023-10-09T08:54:01;18.25;;;8.00;;
33738;SDS011;20063;51.730;11.110;2023-10-09T08:56:27;20.15;;;9.18;;
33738;SDS011;20063;51.730;11.110;2023-10-09T08:58:53;21.92;;;8.98;;
33738;SDS011;20063;51.730;11.110;2023-10-09T09:01:21;22.83;;;9.35;;
33738;SDS011;20063;51.730;11.110;2023-10-09T09:03:49;24.92;;;10.32;;
33738;SDS011;20063;51.730;11.110;2023-10-09T09:06:15;32.35;;;8.10;;
33738;SDS011;20063;51.730;11.110;2023-10-09T09:08:45;28.13;;;10.50;;
33738;SDS011;20063;51.730;11.110;2023-10-09T09:11:12;29.30;;;8.63;;
33738;SDS011;20063;51.730;11.110;2023-10-09T09:13:43;21.50;;;8.32;;
33738;SDS011;20063;51.730;11.110;2023-10-09T09:16:16;27.55;;;8.98;;
33738;SDS011;20063;51.730;11.110;2023-10-09T09:18:48;24.30;;;8.05;;
33738;SDS011;20063;51.730;11.110;2023-10-09T09:21:48;26.50;;;7.35;;
33738;SDS011;20063;51.730;11.110;2023-10-09T09:24:19;24.40;;;7.70;;
33738;SDS011;20063;51.730;11.110;2023-10-09T09:26:49;22.73;;;8.43;;
33738;SDS011;20063;51.730;11.110;2023-10-09T09:29:43;27.30;;;6.78;;
33738;SDS011;20063;51.730;11.110;2023-10-09T09:32:17;22.48;;;8.18;;
33738;SDS011;20063;51.730;11.110;2023-10-09T09:34:55;29.40;;;8.60;;
33738;SDS011;20063;51.730;11.110;2023-10-09T09:37:26;16.60;;;6.75;;
33738;SDS011;20063;51.730;11.110;2023-10-09T09:39:59;25.45;;;7.57;;
33738;SDS011;20063;51.730;11.110;2023-10-09T09:42:41;26.80;;;6.35;;
33738;SDS011;20063;51.730;11.110;2023-10-09T09:45:13;32.28;;;8.23;;
33738;SDS011;20063;51.730;11.110;2023-10-09T09:47:43;24.77;;;7.35;;
33738;SDS011;20063;51.730;11.110;2023-10-09T09:50:16;21.73;;;5.97;;
33738;SDS011;20063;51.730;11.110;2023-10-09T09:52:54;29.90;;;6.65;;
33738;SDS011;20063;51.730;11.110;2023-10-09T09:55:21;31.48;;;6.88;;
33738;SDS011;20063;51.730;11.110;2023-10-09T09:57:56;29.98;;;7.75;;
33738;SDS011;20063;51.730;11.110;2023-10-09T10:00:22;24.98;;;6.32;;
33738;SDS011;20063;51.730;11.110;2023-10-09T10:03:11;25.03;;;6.23;;
33738;SDS011;20063;51.730;11.110;2023-10-09T10:05:42;30.97;;;9.07;;
33738;SDS011;20063;51.730;11.110;2023-10-09T10:08:14;31.50;;;6.43;;
33738;SDS011;20063;51.730;11.110;2023-10-09T10:10:45;21.38;;;5.97;;
33738;SDS011;20063;51.730;11.110;2023-10-09T10:13:15;25.83;;;6.53;;
33738;SDS011;20063;51.730;11.110;2023-10-09T10:18:23;30.23;;;7.82;;
33738;SDS011;20063;51.730;11.110;2023-10-09T10:23:39;28.92;;;7.57;;
33738;SDS011;20063;51.730;11.110;2023-10-09T10:28:46;25.70;;;7.45;;
33738;SDS011;20063;51.730;11.110;2023-10-09T10:32:06;24.27;;;6.20;;
33738;SDS011;20063;51.730;11.110;2023-10-09T10:34:52;22.58;;;5.70;;
33738;SDS011;20063;51.730;11.110;2023-10-09T10:37:37;26.23;;;6.03;;
33738;SDS011;20063;51.730;11.110;2023-10-09T10:40:29;31.73;;;6.35;;
33738;SDS011;20063;51.730;11.110;2023-10-09T10:43:16;36.60;;;5.57;;
33738;SDS011;20063;51.730;11.110;2023-10-09T10:46:02;17.95;;;4.72;;
33738;SDS011;20063;51.730;11.110;2023-10-09T10:48:52;19.63;;;5.53;;
33738;SDS011;20063;51.730;11.110;2023-10-09T10:51:34;23.73;;;6.63;;
33738;SDS011;20063;51.730;11.110;2023-10-09T10:54:03;25.45;;;7.53;;
33738;SDS011;20063;51.730;11.110;2023-10-09T10:56:49;20.65;;;8.30;;
33738;SDS011;20063;51.730;11.110;2023-10-09T10:59:16;24.65;;;9.13;;
33738;SDS011;20063;51.730;11.110;2023-10-09T11:01:49;19.02;;;8.38;;
33738;SDS011;20063;51.730;11.110;2023-10-09T11:04:18;20.50;;;8.38;;
33738;SDS011;20063;51.730;11.110;2023-10-09T11:07:01;18.45;;;8.50;;
33738;SDS011;20063;51.730;11.110;2023-10-09T11:09:53;21.60;;;9.80;;
33738;SDS011;20063;51.730;11.110;2023-10-09T11:15:38;21.95;;;9.60;;
33738;SDS011;20063;51.730;11.110;2023-10-09T11:18:22;27.98;;;10.18;;
33738;SDS011;20063;51.730;11.110;2023-10-09T11:20:52;22.98;;;9.98;;
33738;SDS011;20063;51.730;11.110;2023-10-09T11:23:28;31.92;;;11.68;;
33738;SDS011;20063;51.730;11.110;2023-10-09T11:26:02;19.23;;;10.02;;
33738;SDS011;20063;51.730;11.110;2023-10-09T11:29:06;21.10;;;10.60;;
33738;SDS011;20063;51.730;11.110;2023-10-09T11:34:30;41.22;;;16.00;;
33738;SDS011;20063;51.730;11.110;2023-10-09T11:37:12;29.83;;;15.00;;
33738;SDS011;20063;51.730;11.110;2023-10-09T11:39:41;29.35;;;11.82;;
33738;SDS011;20063;51.730;11.110;2023-10-09T11:42:18;27.67;;;13.52;;
33738;SDS011;20063;51.730;11.110;2023-10-09T11:45:02;20.95;;;9.80;;
33738;SDS011;20063;51.730;11.110;2023-10-09T11:47:47;20.77;;;9.95;;
33738;SDS011;20063;51.730;11.110;2023-10-09T11:53:44;23.77;;;9.38;;
33738;SDS011;20063;51.730;11.110;2023-10-09T11:56:13;20.60;;;8.23;;
33738;SDS011;20063;51.730;11.110;2023-10-09T11:58:42;32.13;;;8.32;;
33738;SDS011;20063;51.730;11.110;2023-10-09T12:01:14;17.30;;;8.25;;
33738;SDS011;20063;51.730;11.110;2023-10-09T12:03:42;22.13;;;8.77;;
33738;SDS011;20063;51.730;11.110;2023-10-09T12:06:09;25.10;;;8.15;;
33738;SDS011;20063;51.730;11.110;2023-10-09T12:08:38;23.77;;;8.32;;
33738;SDS011;20063;51.730;11.110;2023-10-09T12:11:06;22.42;;;8.82;;
33738;SDS011;20063;51.730;11.110;2023-10-09T12:13:38;18.80;;;7.32;;
33738;SDS011;20063;51.730;11.110;2023-10-09T12:16:04;25.17;;;7.82;;
33738;SDS011;20063;51.730;11.110;2023-10-09T12:18:36;19.80;;;8.32;;
33738;SDS011;20063;51.730;11.110;2023-10-09T12:21:04;20.90;;;8.68;;
33738;SDS011;20063;51.730;11.110;2023-10-09T12:23:31;17.60;;;7.88;;
33738;SDS011;20063;51.730;11.110;2023-10-09T12:26:05;21.52;;;9.38;;
33738;SDS011;20063;51.730;11.110;2023-10-09T12:28:39;29.70;;;8.55;;
33738;SDS011;20063;51.730;11.110;2023-10-09T12:31:15;24.42;;;8.68;;
33738;SDS011;20063;51.730;11.110;2023-10-09T12:33:45;21.42;;;9.50;;
33738;SDS011;20063;51.730;11.110;2023-10-09T12:36:18;18.85;;;9.07;;
33738;SDS011;20063;51.730;11.110;2023-10-09T12:38:47;23.60;;;9.45;;
33738;SDS011;20063;51.730;11.110;2023-10-09T12:41:17;25.98;;;9.70;;
33738;SDS011;20063;51.730;11.110;2023-10-09T12:43:46;24.40;;;9.80;;
33738;SDS011;20063;51.730;11.110;2023-10-09T12:46:12;23.35;;;10.43;;
33738;SDS011;20063;51.730;11.110;2023-10-09T12:48:47;25.08;;;10.50;;
33738;SDS011;20063;51.730;11.110;2023-10-09T12:51:13;28.60;;;10.23;;
33738;SDS011;20063;51.730;11.110;2023-10-09T12:53:42;19.90;;;8.65;;
33738;SDS011;20063;51.730;11.110;2023-10-09T12:56:08;32.20;;;10.63;;
33738;SDS011;20063;51.730;11.110;2023-10-09T12:58:36;23.90;;;10.13;;
33738;SDS011;20063;51.730;11.110;2023-10-09T13:01:17;17.38;;;8.60;;
33738;SDS011;20063;51.730;11.110;2023-10-09T13:03:44;20.67;;;8.70;;
33738;SDS011;20063;51.730;11.110;2023-10-09T13:06:14;21.15;;;7.00;;
33738;SDS011;20063;51.730;11.110;2023-10-09T13:08:40;14.43;;;7.03;;
33738;SDS011;20063;51.730;11.110;2023-10-09T13:11:08;17.90;;;7.25;;
33738;SDS011;20063;51.730;11.110;2023-10-09T13:13:42;19.92;;;7.45;;
33738;SDS011;20063;51.730;11.110;2023-10-09T13:16:15;18.35;;;8.15;;
33738;SDS011;20063;51.730;11.110;2023-10-09T13:18:50;13.43;;;6.57;;
33738;SDS011;20063;51.730;11.110;2023-10-09T13:21:17;14.98;;;7.63;;
33738;SDS011;20063;51.730;11.110;2023-10-09T13:23:48;15.77;;;7.35;;
33738;SDS011;20063;51.730;11.110;2023-10-09T13:26:19;15.98;;;6.57;;
33738;SDS011;20063;51.730;11.110;2023-10-09T13:28:51;14.25;;;6.97;;
33738;SDS011;20063;51.730;11.110;2023-10-09T13:31:18;13.27;;;6.75;;
33738;SDS011;20063;51.730;11.110;2023-10-09T13:33:46;19.83;;;8.10;;
33738;SDS011;20063;51.730;11.110;2023-10-09T13:36:13;15.68;;;7.95;;
33738;SDS011;20063;51.730;11.110;2023-10-09T13:39:03;14.95;;;8.30;;
33738;SDS011;20063;51.730;11.110;2023-10-09T13:41:53;18.45;;;8.95;;
33738;SDS011;20063;51.730;11.110;2023-10-09T13:44:29;13.43;;;7.65;;
33738;SDS011;20063;51.730;11.110;2023-10-09T13:46:58;13.77;;;7.80;;
33738;SDS011;20063;51.730;11.110;2023-10-09T13:49:31;11.60;;;7.00;;
33738;SDS011;20063;51.730;11.110;2023-10-09T13:51:57;17.00;;;7.47;;
33738;SDS011;20063;51.730;11.110;2023-10-09T13:54:25;13.77;;;7.78;;
33738;SDS011;20063;51.730;11.110;2023-10-09T13:56:54;17.15;;;8.68;;
33738;SDS011;20063;51.730;11.110;2023-10-09T13:59:20;16.52;;;8.73;;
33738;SDS011;20063;51.730;11.110;2023-10-09T14:01:53;15.98;;;9.20;;
33738;SDS011;20063;51.730;11.110;2023-10-09T14:04:24;17.02;;;9.60;;
33738;SDS011;20063;51.730;11.110;2023-10-09T14:06:51;20.60;;;8.50;;
33738;SDS011;20063;51.730;11.110;2023-10-09T14:09:23;11.48;;;7.38;;
33738;SDS011;20063;51.730;11.110;2023-10-09T14:14:46;17.42;;;7.38;;
33738;SDS011;20063;51.730;11.110;2023-10-09T14:17:22;14.50;;;7.47;;
33738;SDS011;20063;51.730;11.110;2023-10-09T14:19:53;18.50;;;7.97;;
33738;SDS011;20063;51.730;11.110;2023-10-09T14:22:20;13.10;;;6.85;;
33738;SDS011;20063;51.730;11.110;2023-10-09T14:24:49;13.07;;;6.50;;
33738;SDS011;20063;51.730;11.110;2023-10-09T14:27:20;10.30;;;5.43;;
33738;SDS011;20063;51.730;11.110;2023-10-09T14:29:50;8.27;;;4.22;;
33738;SDS011;20063;51.730;11.110;2023-10-09T14:32:16;9.40;;;5.15;;
33738;SDS011;20063;51.730;11.110;2023-10-09T14:34:42;8.45;;;3.97;;
33738;SDS011;20063;51.730;11.110;2023-10-09T14:37:15;20.15;;;5.38;;
33738;SDS011;20063;51.730;11.110;2023-10-09T14:39:44;11.55;;;4.25;;
33738;SDS011;20063;51.730;11.110;2023-10-09T14:42:16;5.40;;;3.58;;
33738;SDS011;20063;51.730;11.110;2023-10-09T14:44:43;7.40;;;4.13;;
33738;SDS011;20063;51.730;11.110;2023-10-09T14:47:12;5.30;;;2.85;;
33738;SDS011;20063;51.730;11.110;2023-10-09T14:49:49;8.82;;;3.70;;
33738;SDS011;20063;51.730;11.110;2023-10-09T14:52:15;5.03;;;3.58;;
33738;SDS011;20063;51.730;11.110;2023-10-09T14:54:42;3.38;;;2.70;;
33738;SDS011;20063;51.730;11.110;2023-10-09T14:57:09;4.88;;;3.10;;
33738;SDS011;20063;51.730;11.110;2023-10-09T14:59:36;7.15;;;3.03;;
33738;SDS011;20063;51.730;11.110;2023-10-09T15:02:02;4.15;;;2.97;;
33738;SDS011;20063;51.730;11.110;2023-10-09T15:04:28;3.50;;;2.55;;
33738;SDS011;20063;51.730;11.110;2023-10-09T15:06:53;2.10;;;1.80;;
33738;SDS011;20063;51.730;11.110;2023-10-09T15:09:19;6.72;;;1.98;;
33738;SDS011;20063;51.730;11.110;2023-10-09T15:11:48;2.50;;;1.90;;
33738;SDS011;20063;51.730;11.110;2023-10-09T15:14:15;2.47;;;1.77;;
33738;SDS011;20063;51.730;11.110;2023-10-09T15:16:41;2.85;;;1.70;;
33738;SDS011;20063;51.730;11.110;2023-10-09T15:19:08;2.70;;;2.00;;
33738;SDS011;20063;51.730;11.110;2023-10-09T15:21:35;2.40;;;2.05;;
33738;SDS011;20063;51.730;11.110;2023-10-09T15:24:09;2.20;;;2.00;;
33738;SDS011;20063;51.730;11.110;2023-10-09T15:26:37;3.28;;;2.35;;
33738;SDS011;20063;51.730;11.110;2023-10-09T15:29:05;3.00;;;1.95;;
33738;SDS011;20063;51.730;11.110;2023-10-09T15:31:31;4.88;;;3.33;;
33738;SDS011;20063;51.730;11.110;2023-10-09T15:33:58;5.40;;;2.63;;
33738;SDS011;20063;51.730;11.110;2023-10-09T15:36:24;2.50;;;2.30;;